sensor_id;sensor_type;location;lat;lon;timestamp;P1;durP1;ratioP1;P2;durP2;ratioP2
35909;SDS011;22004;49.120;-0.200;2023-06-04T00:02:21;9.98;;;3.00;;
35909;SDS011;22004;49.120;-0.200;2023-06-04T00:04:46;8.45;;;3.15;;
35909;SDS011;22004;49.120;-0.200;2023-06-04T00:07:12;6.47;;;2.40;;
35909;SDS011;22004;49.120;-0.200;2023-06-04T00:09:37;6.20;;;2.72;;
35909;SDS011;22004;49.120;-0.200;2023-06-04T00:12:02;6.95;;;2.85;;
35909;SDS011;22004;49.120;-0.200;2023-06-04T00:14:28;6.63;;;3.05;;
35909;SDS011;22004;49.120;-0.200;2023-06-04T00:16:53;7.40;;;2.80;;
35909;SDS011;22004;49.120;-0.200;2023-06-04T00:19:19;6.13;;;2.95;;
35909;SDS011;22004;49.120;-0.200;2023-06-04T00:21:44;5.10;;;2.80;;
35909;SDS011;22004;49.120;-0.200;2023-06-04T00:24:10;8.40;;;3.15;;
35909;SDS011;22004;49.120;-0.200;2023-06-04T00:26:37;5.93;;;2.60;;
35909;SDS011;22004;49.120;-0.200;2023-06-04T00:29:02;5.43;;;2.70;;
35909;SDS011;22004;49.120;-0.200;2023-06-04T00:31:28;4.82;;;2.70;;
35909;SDS011;22004;49.120;-0.200;2023-06-04T00:33:53;7.97;;;3.03;;
35909;SDS011;22004;49.120;-0.200;2023-06-04T00:36:18;7.10;;;3.03;;
35909;SDS011;22004;49.120;-0.200;2023-06-04T00:38:44;8.80;;;2.85;;
35909;SDS011;22004;49.120;-0.200;2023-06-04T00:41:09;9.55;;;2.75;;
35909;SDS011;22004;49.120;-0.200;2023-06-04T00:43:35;7.35;;;3.15;;
35909;SDS011;22004;49.120;-0.200;2023-06-04T00:46:01;7.50;;;2.33;;
35909;SDS011;22004;49.120;-0.200;2023-06-04T00:48:28;6.50;;;2.40;;
35909;SDS011;22004;49.120;-0.200;2023-06-04T00:50:53;9.57;;;2.75;;
35909;SDS011;22004;49.120;-0.200;2023-06-04T00:53:20;5.93;;;2.80;;
35909;SDS011;22004;49.120;-0.200;2023-06-04T00:55:46;10.18;;;3.03;;
35909;SDS011;22004;49.120;-0.200;2023-06-04T00:58:11;7.20;;;3.55;;
35909;SDS011;22004;49.120;-0.200;2023-06-04T01:00:37;5.85;;;2.80;;
35909;SDS011;22004;49.120;-0.200;2023-06-04T01:03:03;10.48;;;2.30;;
35909;SDS011;22004;49.120;-0.200;2023-06-04T01:08:03;4.93;;;2.63;;
35909;SDS011;22004;49.120;-0.200;2023-06-04T01:10:30;8.63;;;2.70;;
35909;SDS011;22004;49.120;-0.200;2023-06-04T01:12:56;6.80;;;2.75;;
35909;SDS011;22004;49.120;-0.200;2023-06-04T01:15:21;8.43;;;3.05;;
35909;SDS011;22004;49.120;-0.200;2023-06-04T01:17:48;8.98;;;2.70;;
35909;SDS011;22004;49.120;-0.200;2023-06-04T01:25:31;8.77;;;2.72;;
35909;SDS011;22004;49.120;-0.200;2023-06-04T01:27:59;10.63;;;2.67;;
35909;SDS011;22004;49.120;-0.200;2023-06-04T01:30:29;6.88;;;2.80;;
35909;SDS011;22004;49.120;-0.200;2023-06-04T01:32:59;4.80;;;2.35;;
35909;SDS011;22004;49.120;-0.200;2023-06-04T01:35:26;6.75;;;3.17;;
35909;SDS011;22004;49.120;-0.200;2023-06-04T01:37:54;8.40;;;3.10;;
35909;SDS011;22004;49.120;-0.200;2023-06-04T01:40:20;9.00;;;2.80;;
35909;SDS011;22004;49.120;-0.200;2023-06-04T01:42:46;5.60;;;2.50;;
35909;SDS011;22004;49.120;-0.200;2023-06-04T01:45:11;10.88;;;3.55;;
35909;SDS011;22004;49.120;-0.200;2023-06-04T01:47:36;7.70;;;2.95;;
35909;SDS011;22004;49.120;-0.200;2023-06-04T01:50:03;6.32;;;2.63;;
35909;SDS011;22004;49.120;-0.200;2023-06-04T01:52:35;7.25;;;3.10;;
35909;SDS011;22004;49.120;-0.200;2023-06-04T01:55:02;6.20;;;2.50;;
35909;SDS011;22004;49.120;-0.200;2023-06-04T01:57:32;6.43;;;2.53;;
35909;SDS011;22004;49.120;-0.200;2023-06-04T01:59:58;6.07;;;2.85;;
35909;SDS011;22004;49.120;-0.200;2023-06-04T02:02:24;6.85;;;3.00;;
35909;SDS011;22004;49.120;-0.200;2023-06-04T02:04:50;6.25;;;2.78;;
35909;SDS011;22004;49.120;-0.200;2023-06-04T02:07:16;5.65;;;2.67;;
35909;SDS011;22004;49.120;-0.200;2023-06-04T02:09:45;4.93;;;2.95;;
35909;SDS011;22004;49.120;-0.200;2023-06-04T02:12:14;6.55;;;2.40;;
35909;SDS011;22004;49.120;-0.200;2023-06-04T02:14:40;5.78;;;2.53;;
35909;SDS011;22004;49.120;-0.200;2023-06-04T02:17:12;4.63;;;2.50;;
35909;SDS011;22004;49.120;-0.200;2023-06-04T02:19:41;6.82;;;2.67;;
35909;SDS011;22004;49.120;-0.200;2023-06-04T02:22:15;5.53;;;2.72;;
35909;SDS011;22004;49.120;-0.200;2023-06-04T02:24:41;8.15;;;2.55;;
35909;SDS011;22004;49.120;-0.200;2023-06-04T02:27:10;6.93;;;2.67;;
35909;SDS011;22004;49.120;-0.200;2023-06-04T02:29:37;4.53;;;2.65;;
35909;SDS011;22004;49.120;-0.200;2023-06-04T02:32:03;5.53;;;2.63;;
35909;SDS011;22004;49.120;-0.200;2023-06-04T02:34:29;5.80;;;2.60;;
35909;SDS011;22004;49.120;-0.200;2023-06-04T02:36:54;6.18;;;2.78;;
35909;SDS011;22004;49.120;-0.200;2023-06-04T02:39:20;4.13;;;2.30;;
35909;SDS011;22004;49.120;-0.200;2023-06-04T02:41:45;5.72;;;2.60;;
35909;SDS011;22004;49.120;-0.200;2023-06-04T02:44:11;4.60;;;2.67;;
35909;SDS011;22004;49.120;-0.200;2023-06-04T02:46:36;7.97;;;2.70;;
35909;SDS011;22004;49.120;-0.200;2023-06-04T02:49:02;5.90;;;2.47;;
35909;SDS011;22004;49.120;-0.200;2023-06-04T02:51:28;4.72;;;2.60;;
35909;SDS011;22004;49.120;-0.200;2023-06-04T02:53:53;7.45;;;2.65;;
35909;SDS011;22004;49.120;-0.200;2023-06-04T02:56:19;5.82;;;2.67;;
35909;SDS011;22004;49.120;-0.200;2023-06-04T02:58:54;10.90;;;2.55;;
35909;SDS011;22004;49.120;-0.200;2023-06-04T03:01:24;5.07;;;2.50;;
35909;SDS011;22004;49.120;-0.200;2023-06-04T03:03:51;10.10;;;3.55;;
35909;SDS011;22004;49.120;-0.200;2023-06-04T03:06:17;8.85;;;2.70;;
35909;SDS011;22004;49.120;-0.200;2023-06-04T03:08:45;7.38;;;2.30;;
35909;SDS011;22004;49.120;-0.200;2023-06-04T03:11:11;4.57;;;2.45;;
35909;SDS011;22004;49.120;-0.200;2023-06-04T03:13:37;5.78;;;2.63;;
35909;SDS011;22004;49.120;-0.200;2023-06-04T03:16:03;3.55;;;2.10;;
35909;SDS011;22004;49.120;-0.200;2023-06-04T03:18:28;4.82;;;2.50;;
35909;SDS011;22004;49.120;-0.200;2023-06-04T03:20:54;5.35;;;2.60;;
35909;SDS011;22004;49.120;-0.200;2023-06-04T03:23:23;7.03;;;2.40;;
35909;SDS011;22004;49.120;-0.200;2023-06-04T03:25:48;5.00;;;2.45;;
35909;SDS011;22004;49.120;-0.200;2023-06-04T03:28:13;6.13;;;2.47;;
35909;SDS011;22004;49.120;-0.200;2023-06-04T03:30:39;7.15;;;2.72;;
35909;SDS011;22004;49.120;-0.200;2023-06-04T03:33:05;5.50;;;2.70;;
35909;SDS011;22004;49.120;-0.200;2023-06-04T03:35:31;6.28;;;2.72;;
35909;SDS011;22004;49.120;-0.200;2023-06-04T03:37:56;6.88;;;2.40;;
35909;SDS011;22004;49.120;-0.200;2023-06-04T03:40:22;6.28;;;2.55;;
35909;SDS011;22004;49.120;-0.200;2023-06-04T03:42:47;10.68;;;2.40;;
35909;SDS011;22004;49.120;-0.200;2023-06-04T03:45:12;4.25;;;2.33;;
35909;SDS011;22004;49.120;-0.200;2023-06-04T03:47:38;8.02;;;2.63;;
35909;SDS011;22004;49.120;-0.200;2023-06-04T03:50:04;5.32;;;2.40;;
35909;SDS011;22004;49.120;-0.200;2023-06-04T03:52:30;5.82;;;2.35;;
35909;SDS011;22004;49.120;-0.200;2023-06-04T03:54:56;5.85;;;3.05;;
35909;SDS011;22004;49.120;-0.200;2023-06-04T03:57:22;4.00;;;2.05;;
35909;SDS011;22004;49.120;-0.200;2023-06-04T03:59:47;3.83;;;2.15;;
35909;SDS011;22004;49.120;-0.200;2023-06-04T04:02:12;6.07;;;2.42;;
35909;SDS011;22004;49.120;-0.200;2023-06-04T04:04:38;3.95;;;2.38;;
35909;SDS011;22004;49.120;-0.200;2023-06-04T04:07:03;5.70;;;2.40;;
35909;SDS011;22004;49.120;-0.200;2023-06-04T04:09:28;3.88;;;2.08;;
35909;SDS011;22004;49.120;-0.200;2023-06-04T04:11:54;5.65;;;2.33;;
35909;SDS011;22004;49.120;-0.200;2023-06-04T04:14:19;5.18;;;1.95;;
35909;SDS011;22004;49.120;-0.200;2023-06-04T04:16:45;5.70;;;2.65;;
35909;SDS011;22004;49.120;-0.200;2023-06-04T04:19:10;5.03;;;2.47;;
35909;SDS011;22004;49.120;-0.200;2023-06-04T04:21:36;5.97;;;2.47;;
35909;SDS011;22004;49.120;-0.200;2023-06-04T04:24:02;6.60;;;2.25;;
35909;SDS011;22004;49.120;-0.200;2023-06-04T04:26:28;7.55;;;2.60;;
35909;SDS011;22004;49.120;-0.200;2023-06-04T04:28:54;5.93;;;2.20;;
35909;SDS011;22004;49.120;-0.200;2023-06-04T04:31:25;6.10;;;2.53;;
35909;SDS011;22004;49.120;-0.200;2023-06-04T04:33:52;5.05;;;2.38;;
35909;SDS011;22004;49.120;-0.200;2023-06-04T04:36:17;6.35;;;2.38;;
35909;SDS011;22004;49.120;-0.200;2023-06-04T04:38:43;7.38;;;2.28;;
35909;SDS011;22004;49.120;-0.200;2023-06-04T04:41:09;5.88;;;2.50;;
35909;SDS011;22004;49.120;-0.200;2023-06-04T04:43:37;6.53;;;2.72;;
35909;SDS011;22004;49.120;-0.200;2023-06-04T04:46:06;6.65;;;2.40;;
35909;SDS011;22004;49.120;-0.200;2023-06-04T04:48:31;5.97;;;2.30;;
35909;SDS011;22004;49.120;-0.200;2023-06-04T04:50:57;4.68;;;2.30;;
35909;SDS011;22004;49.120;-0.200;2023-06-04T04:53:23;6.00;;;2.40;;
35909;SDS011;22004;49.120;-0.200;2023-06-04T04:55:48;5.00;;;2.50;;
35909;SDS011;22004;49.120;-0.200;2023-06-04T04:58:14;8.50;;;2.65;;
35909;SDS011;22004;49.120;-0.200;2023-06-04T05:00:40;4.57;;;2.33;;
35909;SDS011;22004;49.120;-0.200;2023-06-04T05:03:05;5.32;;;2.78;;
35909;SDS011;22004;49.120;-0.200;2023-06-04T05:05:31;6.10;;;2.63;;
35909;SDS011;22004;49.120;-0.200;2023-06-04T05:07:57;4.78;;;2.40;;
35909;SDS011;22004;49.120;-0.200;2023-06-04T05:10:22;5.10;;;2.28;;
35909;SDS011;22004;49.120;-0.200;2023-06-04T05:12:55;5.47;;;2.33;;
35909;SDS011;22004;49.120;-0.200;2023-06-04T05:15:22;5.85;;;1.98;;
35909;SDS011;22004;49.120;-0.200;2023-06-04T05:17:49;7.05;;;2.83;;
35909;SDS011;22004;49.120;-0.200;2023-06-04T05:20:17;8.32;;;2.35;;
35909;SDS011;22004;49.120;-0.200;2023-06-04T05:22:42;4.03;;;2.35;;
35909;SDS011;22004;49.120;-0.200;2023-06-04T05:25:08;8.15;;;2.65;;
35909;SDS011;22004;49.120;-0.200;2023-06-04T05:27:34;4.50;;;2.00;;
35909;SDS011;22004;49.120;-0.200;2023-06-04T05:30:00;7.70;;;2.35;;
35909;SDS011;22004;49.120;-0.200;2023-06-04T05:32:27;7.57;;;2.50;;
35909;SDS011;22004;49.120;-0.200;2023-06-04T05:34:53;4.57;;;1.92;;
35909;SDS011;22004;49.120;-0.200;2023-06-04T05:37:22;3.78;;;2.08;;
35909;SDS011;22004;49.120;-0.200;2023-06-04T05:39:48;5.78;;;2.10;;
35909;SDS011;22004;49.120;-0.200;2023-06-04T05:42:14;6.63;;;2.13;;
35909;SDS011;22004;49.120;-0.200;2023-06-04T05:44:40;4.72;;;2.28;;
35909;SDS011;22004;49.120;-0.200;2023-06-04T05:47:05;7.88;;;2.65;;
35909;SDS011;22004;49.120;-0.200;2023-06-04T05:49:32;8.27;;;2.22;;
35909;SDS011;22004;49.120;-0.200;2023-06-04T05:51:59;4.63;;;2.20;;
35909;SDS011;22004;49.120;-0.200;2023-06-04T05:54:24;5.72;;;2.28;;
35909;SDS011;22004;49.120;-0.200;2023-06-04T05:56:49;10.73;;;2.33;;
35909;SDS011;22004;49.120;-0.200;2023-06-04T05:59:15;5.70;;;2.55;;
35909;SDS011;22004;49.120;-0.200;2023-06-04T06:01:40;5.00;;;2.33;;
35909;SDS011;22004;49.120;-0.200;2023-06-04T06:04:05;6.22;;;2.60;;
35909;SDS011;22004;49.120;-0.200;2023-06-04T06:06:31;8.27;;;2.50;;
35909;SDS011;22004;49.120;-0.200;2023-06-04T06:08:56;8.85;;;2.60;;
35909;SDS011;22004;49.120;-0.200;2023-06-04T06:11:23;6.05;;;2.80;;
35909;SDS011;22004;49.120;-0.200;2023-06-04T06:13:48;7.55;;;2.53;;
35909;SDS011;22004;49.120;-0.200;2023-06-04T06:16:13;9.68;;;2.53;;
35909;SDS011;22004;49.120;-0.200;2023-06-04T06:18:39;6.22;;;2.58;;
35909;SDS011;22004;49.120;-0.200;2023-06-04T06:21:04;5.00;;;2.70;;
35909;SDS011;22004;49.120;-0.200;2023-06-04T06:23:30;6.68;;;2.30;;
35909;SDS011;22004;49.120;-0.200;2023-06-04T06:25:56;4.38;;;2.38;;
35909;SDS011;22004;49.120;-0.200;2023-06-04T06:28:22;9.32;;;2.85;;
35909;SDS011;22004;49.120;-0.200;2023-06-04T06:30:47;9.30;;;2.47;;
35909;SDS011;22004;49.120;-0.200;2023-06-04T06:33:13;7.10;;;2.53;;
35909;SDS011;22004;49.120;-0.200;2023-06-04T06:35:38;5.35;;;2.63;;
35909;SDS011;22004;49.120;-0.200;2023-06-04T06:38:04;6.88;;;2.25;;
35909;SDS011;22004;49.120;-0.200;2023-06-04T06:40:30;16.60;;;3.25;;
35909;SDS011;22004;49.120;-0.200;2023-06-04T06:42:55;4.93;;;2.67;;
35909;SDS011;22004;49.120;-0.200;2023-06-04T06:45:21;5.32;;;2.88;;
35909;SDS011;22004;49.120;-0.200;2023-06-04T06:47:46;6.72;;;2.30;;
35909;SDS011;22004;49.120;-0.200;2023-06-04T06:50:12;6.05;;;2.22;;
35909;SDS011;22004;49.120;-0.200;2023-06-04T06:52:37;10.80;;;2.85;;
35909;SDS011;22004;49.120;-0.200;2023-06-04T06:55:03;6.18;;;2.35;;
35909;SDS011;22004;49.120;-0.200;2023-06-04T06:57:29;10.48;;;2.47;;
35909;SDS011;22004;49.120;-0.200;2023-06-04T06:59:55;7.78;;;2.58;;
35909;SDS011;22004;49.120;-0.200;2023-06-04T07:02:21;7.18;;;2.25;;
35909;SDS011;22004;49.120;-0.200;2023-06-04T07:04:47;6.20;;;2.42;;
35909;SDS011;22004;49.120;-0.200;2023-06-04T07:07:13;8.65;;;1.90;;
35909;SDS011;22004;49.120;-0.200;2023-06-04T07:09:38;8.20;;;2.63;;
35909;SDS011;22004;49.120;-0.200;2023-06-04T07:12:03;9.80;;;2.65;;
35909;SDS011;22004;49.120;-0.200;2023-06-04T07:14:29;11.15;;;2.95;;
35909;SDS011;22004;49.120;-0.200;2023-06-04T07:16:54;6.85;;;2.65;;
35909;SDS011;22004;49.120;-0.200;2023-06-04T07:19:20;9.93;;;2.85;;
35909;SDS011;22004;49.120;-0.200;2023-06-04T07:21:45;7.65;;;2.40;;
35909;SDS011;22004;49.120;-0.200;2023-06-04T07:24:11;8.07;;;2.28;;
35909;SDS011;22004;49.120;-0.200;2023-06-04T07:26:36;4.70;;;1.92;;
35909;SDS011;22004;49.120;-0.200;2023-06-04T07:29:02;8.05;;;2.00;;
35909;SDS011;22004;49.120;-0.200;2023-06-04T07:31:27;7.88;;;2.20;;
35909;SDS011;22004;49.120;-0.200;2023-06-04T07:33:52;6.40;;;2.30;;
35909;SDS011;22004;49.120;-0.200;2023-06-04T07:36:18;9.13;;;2.47;;
35909;SDS011;22004;49.120;-0.200;2023-06-04T07:38:43;5.00;;;2.40;;
35909;SDS011;22004;49.120;-0.200;2023-06-04T07:41:09;7.70;;;2.28;;
35909;SDS011;22004;49.120;-0.200;2023-06-04T07:43:35;11.55;;;2.75;;
35909;SDS011;22004;49.120;-0.200;2023-06-04T07:46:01;5.72;;;2.25;;
35909;SDS011;22004;49.120;-0.200;2023-06-04T07:48:27;7.00;;;2.17;;
35909;SDS011;22004;49.120;-0.200;2023-06-04T07:50:59;9.50;;;2.15;;
35909;SDS011;22004;49.120;-0.200;2023-06-04T07:53:25;5.53;;;2.03;;
35909;SDS011;22004;49.120;-0.200;2023-06-04T07:55:52;7.55;;;2.58;;
35909;SDS011;22004;49.120;-0.200;2023-06-04T07:58:18;7.35;;;2.28;;
35909;SDS011;22004;49.120;-0.200;2023-06-04T08:00:43;4.85;;;2.00;;
35909;SDS011;22004;49.120;-0.200;2023-06-04T08:03:09;6.43;;;2.63;;
35909;SDS011;22004;49.120;-0.200;2023-06-04T08:05:35;7.75;;;2.17;;
35909;SDS011;22004;49.120;-0.200;2023-06-04T08:08:00;9.35;;;2.20;;
35909;SDS011;22004;49.120;-0.200;2023-06-04T08:10:26;4.72;;;2.10;;
35909;SDS011;22004;49.120;-0.200;2023-06-04T08:12:52;6.47;;;2.17;;
35909;SDS011;22004;49.120;-0.200;2023-06-04T08:15:17;9.63;;;2.33;;
35909;SDS011;22004;49.120;-0.200;2023-06-04T08:17:42;8.13;;;2.38;;
35909;SDS011;22004;49.120;-0.200;2023-06-04T08:20:08;2.97;;;2.00;;
35909;SDS011;22004;49.120;-0.200;2023-06-04T08:22:36;9.70;;;1.83;;
35909;SDS011;22004;49.120;-0.200;2023-06-04T08:25:02;5.53;;;1.92;;
35909;SDS011;22004;49.120;-0.200;2023-06-04T08:27:29;9.88;;;2.17;;
35909;SDS011;22004;49.120;-0.200;2023-06-04T08:29:54;5.93;;;2.42;;
35909;SDS011;22004;49.120;-0.200;2023-06-04T08:32:20;10.07;;;2.38;;
35909;SDS011;22004;49.120;-0.200;2023-06-04T08:34:45;6.28;;;2.20;;
35909;SDS011;22004;49.120;-0.200;2023-06-04T08:37:11;5.72;;;2.28;;
35909;SDS011;22004;49.120;-0.200;2023-06-04T08:39:36;8.07;;;2.67;;
35909;SDS011;22004;49.120;-0.200;2023-06-04T08:42:05;8.65;;;2.20;;
35909;SDS011;22004;49.120;-0.200;2023-06-04T08:44:34;4.63;;;2.08;;
35909;SDS011;22004;49.120;-0.200;2023-06-04T08:47:03;6.13;;;1.90;;
35909;SDS011;22004;49.120;-0.200;2023-06-04T08:49:34;7.68;;;2.42;;
35909;SDS011;22004;49.120;-0.200;2023-06-04T08:52:01;8.48;;;2.33;;
35909;SDS011;22004;49.120;-0.200;2023-06-04T08:54:27;5.57;;;2.28;;
35909;SDS011;22004;49.120;-0.200;2023-06-04T08:56:55;7.80;;;2.00;;
35909;SDS011;22004;49.120;-0.200;2023-06-04T08:59:21;5.93;;;2.13;;
35909;SDS011;22004;49.120;-0.200;2023-06-04T09:01:47;7.15;;;2.50;;
35909;SDS011;22004;49.120;-0.200;2023-06-04T09:04:13;9.80;;;2.35;;
35909;SDS011;22004;49.120;-0.200;2023-06-04T09:06:39;5.07;;;1.85;;
35909;SDS011;22004;49.120;-0.200;2023-06-04T09:09:08;5.47;;;2.10;;
35909;SDS011;22004;49.120;-0.200;2023-06-04T09:11:36;11.02;;;2.42;;
35909;SDS011;22004;49.120;-0.200;2023-06-04T09:14:09;6.63;;;2.22;;
35909;SDS011;22004;49.120;-0.200;2023-06-04T09:16:42;6.63;;;2.55;;
35909;SDS011;22004;49.120;-0.200;2023-06-04T09:19:11;8.95;;;2.40;;
35909;SDS011;22004;49.120;-0.200;2023-06-04T09:21:53;10.27;;;2.50;;
35909;SDS011;22004;49.120;-0.200;2023-06-04T09:24:20;7.55;;;2.40;;
35909;SDS011;22004;49.120;-0.200;2023-06-04T09:26:46;11.02;;;2.50;;
35909;SDS011;22004;49.120;-0.200;2023-06-04T09:29:12;5.40;;;2.05;;
35909;SDS011;22004;49.120;-0.200;2023-06-04T09:31:38;7.13;;;2.33;;
35909;SDS011;22004;49.120;-0.200;2023-06-04T09:34:05;8.05;;;2.15;;
35909;SDS011;22004;49.120;-0.200;2023-06-04T09:36:31;7.32;;;2.22;;
35909;SDS011;22004;49.120;-0.200;2023-06-04T09:39:00;6.38;;;2.40;;
35909;SDS011;22004;49.120;-0.200;2023-06-04T09:41:27;5.05;;;2.28;;
35909;SDS011;22004;49.120;-0.200;2023-06-04T09:44:02;6.55;;;3.00;;
35909;SDS011;22004;49.120;-0.200;2023-06-04T09:46:28;5.13;;;2.40;;
35909;SDS011;22004;49.120;-0.200;2023-06-04T09:49:02;5.10;;;2.00;;
35909;SDS011;22004;49.120;-0.200;2023-06-04T09:51:29;5.85;;;2.22;;
35909;SDS011;22004;49.120;-0.200;2023-06-04T09:56:24;10.88;;;2.30;;
35909;SDS011;22004;49.120;-0.200;2023-06-04T09:58:55;8.48;;;2.47;;
35909;SDS011;22004;49.120;-0.200;2023-06-04T10:01:25;9.07;;;2.90;;
35909;SDS011;22004;49.120;-0.200;2023-06-04T10:03:51;7.68;;;2.58;;
35909;SDS011;22004;49.120;-0.200;2023-06-04T10:06:18;6.75;;;2.50;;
35909;SDS011;22004;49.120;-0.200;2023-06-04T10:08:48;6.20;;;2.13;;
35909;SDS011;22004;49.120;-0.200;2023-06-04T10:11:15;9.30;;;2.60;;
35909;SDS011;22004;49.120;-0.200;2023-06-04T10:13:56;7.45;;;2.45;;
35909;SDS011;22004;49.120;-0.200;2023-06-04T10:16:27;6.63;;;2.30;;
35909;SDS011;22004;49.120;-0.200;2023-06-04T10:18:55;4.80;;;2.38;;
35909;SDS011;22004;49.120;-0.200;2023-06-04T10:21:21;9.88;;;2.35;;
35909;SDS011;22004;49.120;-0.200;2023-06-04T10:23:47;7.85;;;2.40;;
35909;SDS011;22004;49.120;-0.200;2023-06-04T10:26:14;4.20;;;2.33;;
35909;SDS011;22004;49.120;-0.200;2023-06-04T10:28:40;6.00;;;2.25;;
35909;SDS011;22004;49.120;-0.200;2023-06-04T10:31:08;7.68;;;2.70;;
35909;SDS011;22004;49.120;-0.200;2023-06-04T10:33:36;8.30;;;3.03;;
35909;SDS011;22004;49.120;-0.200;2023-06-04T10:36:15;8.10;;;2.35;;
35909;SDS011;22004;49.120;-0.200;2023-06-04T10:38:46;5.57;;;2.35;;
35909;SDS011;22004;49.120;-0.200;2023-06-04T10:41:15;7.05;;;2.80;;
35909;SDS011;22004;49.120;-0.200;2023-06-04T10:43:45;6.32;;;2.70;;
35909;SDS011;22004;49.120;-0.200;2023-06-04T10:46:14;6.43;;;2.50;;
35909;SDS011;22004;49.120;-0.200;2023-06-04T10:48:48;3.70;;;2.10;;
35909;SDS011;22004;49.120;-0.200;2023-06-04T10:51:14;5.53;;;2.35;;
35909;SDS011;22004;49.120;-0.200;2023-06-04T10:53:40;4.40;;;2.60;;
35909;SDS011;22004;49.120;-0.200;2023-06-04T10:56:05;8.43;;;2.58;;
35909;SDS011;22004;49.120;-0.200;2023-06-04T10:58:31;8.18;;;2.40;;
35909;SDS011;22004;49.120;-0.200;2023-06-04T11:00:58;7.43;;;2.80;;
35909;SDS011;22004;49.120;-0.200;2023-06-04T11:03:23;8.82;;;2.65;;
35909;SDS011;22004;49.120;-0.200;2023-06-04T11:06:01;8.20;;;2.78;;
35909;SDS011;22004;49.120;-0.200;2023-06-04T11:08:27;7.03;;;2.53;;
35909;SDS011;22004;49.120;-0.200;2023-06-04T11:10:54;9.73;;;2.13;;
35909;SDS011;22004;49.120;-0.200;2023-06-04T11:13:25;8.80;;;2.22;;
35909;SDS011;22004;49.120;-0.200;2023-06-04T11:15:51;7.20;;;2.30;;
35909;SDS011;22004;49.120;-0.200;2023-06-04T11:18:19;5.97;;;2.50;;
35909;SDS011;22004;49.120;-0.200;2023-06-04T11:20:46;8.13;;;2.40;;
35909;SDS011;22004;49.120;-0.200;2023-06-04T11:23:15;12.93;;;2.47;;
35909;SDS011;22004;49.120;-0.200;2023-06-04T11:25:42;8.10;;;2.47;;
35909;SDS011;22004;49.120;-0.200;2023-06-04T11:28:14;10.90;;;2.60;;
35909;SDS011;22004;49.120;-0.200;2023-06-04T11:30:41;8.13;;;3.08;;
35909;SDS011;22004;49.120;-0.200;2023-06-04T11:33:06;10.55;;;3.42;;
35909;SDS011;22004;49.120;-0.200;2023-06-04T11:35:39;20.52;;;3.63;;
35909;SDS011;22004;49.120;-0.200;2023-06-04T11:38:06;6.47;;;2.38;;
35909;SDS011;22004;49.120;-0.200;2023-06-04T11:40:31;7.88;;;2.55;;
35909;SDS011;22004;49.120;-0.200;2023-06-04T11:42:57;10.65;;;3.72;;
35909;SDS011;22004;49.120;-0.200;2023-06-04T11:45:22;6.47;;;2.47;;
35909;SDS011;22004;49.120;-0.200;2023-06-04T11:47:49;13.73;;;3.20;;
35909;SDS011;22004;49.120;-0.200;2023-06-04T11:50:14;8.27;;;2.72;;
35909;SDS011;22004;49.120;-0.200;2023-06-04T11:52:40;12.00;;;2.72;;
35909;SDS011;22004;49.120;-0.200;2023-06-04T11:55:10;7.45;;;3.00;;
35909;SDS011;22004;49.120;-0.200;2023-06-04T11:57:40;11.00;;;3.00;;
35909;SDS011;22004;49.120;-0.200;2023-06-04T12:00:06;10.70;;;3.10;;
35909;SDS011;22004;49.120;-0.200;2023-06-04T12:02:36;23.75;;;2.97;;
35909;SDS011;22004;49.120;-0.200;2023-06-04T12:05:14;5.97;;;2.78;;
35909;SDS011;22004;49.120;-0.200;2023-06-04T12:07:41;12.05;;;2.90;;
35909;SDS011;22004;49.120;-0.200;2023-06-04T12:10:09;11.05;;;2.90;;
35909;SDS011;22004;49.120;-0.200;2023-06-04T12:12:36;8.40;;;2.92;;
35909;SDS011;22004;49.120;-0.200;2023-06-04T12:15:02;8.35;;;2.65;;
35909;SDS011;22004;49.120;-0.200;2023-06-04T12:17:30;16.27;;;2.90;;
35909;SDS011;22004;49.120;-0.200;2023-06-04T12:19:55;6.05;;;2.65;;
35909;SDS011;22004;49.120;-0.200;2023-06-04T12:22:23;9.57;;;2.60;;
35909;SDS011;22004;49.120;-0.200;2023-06-04T12:24:58;16.45;;;2.88;;
35909;SDS011;22004;49.120;-0.200;2023-06-04T12:27:26;14.07;;;3.40;;
35909;SDS011;22004;49.120;-0.200;2023-06-04T12:30:01;13.68;;;3.20;;
35909;SDS011;22004;49.120;-0.200;2023-06-04T12:32:29;16.70;;;2.92;;
35909;SDS011;22004;49.120;-0.200;2023-06-04T12:34:54;16.52;;;3.17;;
35909;SDS011;22004;49.120;-0.200;2023-06-04T12:37:20;16.65;;;2.90;;
35909;SDS011;22004;49.120;-0.200;2023-06-04T12:39:46;11.20;;;3.03;;
35909;SDS011;22004;49.120;-0.200;2023-06-04T12:42:12;11.30;;;3.20;;
35909;SDS011;22004;49.120;-0.200;2023-06-04T12:44:38;15.23;;;3.08;;
35909;SDS011;22004;49.120;-0.200;2023-06-04T12:47:05;14.07;;;2.90;;
35909;SDS011;22004;49.120;-0.200;2023-06-04T12:49:31;16.52;;;2.90;;
35909;SDS011;22004;49.120;-0.200;2023-06-04T12:51:57;11.73;;;3.28;;
35909;SDS011;22004;49.120;-0.200;2023-06-04T12:54:22;7.47;;;2.80;;
35909;SDS011;22004;49.120;-0.200;2023-06-04T12:56:48;14.52;;;3.20;;
35909;SDS011;22004;49.120;-0.200;2023-06-04T12:59:13;9.73;;;3.22;;
35909;SDS011;22004;49.120;-0.200;2023-06-04T13:01:39;9.77;;;2.95;;
35909;SDS011;22004;49.120;-0.200;2023-06-04T13:04:05;13.88;;;3.53;;
35909;SDS011;22004;49.120;-0.200;2023-06-04T13:06:31;10.35;;;3.03;;
35909;SDS011;22004;49.120;-0.200;2023-06-04T13:08:57;15.05;;;3.42;;
35909;SDS011;22004;49.120;-0.200;2023-06-04T13:11:22;14.30;;;3.65;;
35909;SDS011;22004;49.120;-0.200;2023-06-04T13:13:48;11.43;;;3.03;;
35909;SDS011;22004;49.120;-0.200;2023-06-04T13:16:13;11.63;;;3.42;;
35909;SDS011;22004;49.120;-0.200;2023-06-04T13:18:39;11.43;;;3.40;;
35909;SDS011;22004;49.120;-0.200;2023-06-04T13:21:04;12.70;;;3.30;;
35909;SDS011;22004;49.120;-0.200;2023-06-04T13:23:30;9.30;;;2.83;;
35909;SDS011;22004;49.120;-0.200;2023-06-04T13:25:55;15.80;;;3.85;;
35909;SDS011;22004;49.120;-0.200;2023-06-04T13:28:21;13.93;;;3.08;;
35909;SDS011;22004;49.120;-0.200;2023-06-04T13:30:46;13.85;;;3.55;;
35909;SDS011;22004;49.120;-0.200;2023-06-04T13:33:12;10.50;;;3.10;;
35909;SDS011;22004;49.120;-0.200;2023-06-04T13:35:37;11.30;;;2.95;;
35909;SDS011;22004;49.120;-0.200;2023-06-04T13:38:06;10.75;;;2.85;;
35909;SDS011;22004;49.120;-0.200;2023-06-04T13:40:33;12.85;;;3.00;;
35909;SDS011;22004;49.120;-0.200;2023-06-04T13:42:59;21.00;;;4.10;;
35909;SDS011;22004;49.120;-0.200;2023-06-04T13:45:24;13.30;;;3.53;;
35909;SDS011;22004;49.120;-0.200;2023-06-04T13:47:50;15.73;;;3.42;;
35909;SDS011;22004;49.120;-0.200;2023-06-04T13:50:15;15.57;;;4.32;;
35909;SDS011;22004;49.120;-0.200;2023-06-04T13:52:41;8.93;;;3.10;;
35909;SDS011;22004;49.120;-0.200;2023-06-04T13:55:06;10.40;;;2.67;;
35909;SDS011;22004;49.120;-0.200;2023-06-04T13:57:32;15.43;;;3.53;;
35909;SDS011;22004;49.120;-0.200;2023-06-04T13:59:58;13.23;;;3.00;;
35909;SDS011;22004;49.120;-0.200;2023-06-04T14:02:23;10.18;;;3.55;;
35909;SDS011;22004;49.120;-0.200;2023-06-04T14:04:52;10.85;;;3.10;;
35909;SDS011;22004;49.120;-0.200;2023-06-04T14:07:19;12.15;;;3.63;;
35909;SDS011;22004;49.120;-0.200;2023-06-04T14:09:45;16.20;;;3.60;;
35909;SDS011;22004;49.120;-0.200;2023-06-04T14:12:10;9.65;;;2.72;;
35909;SDS011;22004;49.120;-0.200;2023-06-04T14:14:36;16.40;;;4.03;;
35909;SDS011;22004;49.120;-0.200;2023-06-04T14:17:04;15.48;;;3.38;;
35909;SDS011;22004;49.120;-0.200;2023-06-04T14:19:32;14.38;;;3.45;;
35909;SDS011;22004;49.120;-0.200;2023-06-04T14:21:58;11.63;;;3.60;;
35909;SDS011;22004;49.120;-0.200;2023-06-04T14:24:23;15.68;;;3.78;;
35909;SDS011;22004;49.120;-0.200;2023-06-04T14:26:48;22.67;;;3.50;;
35909;SDS011;22004;49.120;-0.200;2023-06-04T14:29:14;17.95;;;3.40;;
35909;SDS011;22004;49.120;-0.200;2023-06-04T14:31:39;15.40;;;3.15;;
35909;SDS011;22004;49.120;-0.200;2023-06-04T14:34:05;13.82;;;3.10;;
35909;SDS011;22004;49.120;-0.200;2023-06-04T14:36:32;15.00;;;3.28;;
35909;SDS011;22004;49.120;-0.200;2023-06-04T14:38:57;18.48;;;3.58;;